createdAt,value
2023-02-01T00:00:34.384Z,101317.41
2023-02-01T00:03:01.903Z,101309.47
2023-02-01T00:05:28.675Z,101306.56
2023-02-01T00:07:55.877Z,101305.06
2023-02-01T00:10:22.902Z,101310.69
2023-02-01T00:12:49.905Z,101315.44
2023-02-01T00:15:16.821Z,101316.75
2023-02-01T00:17:43.562Z,101310.63
2023-02-01T00:20:11.434Z,101315.28
2023-02-01T00:22:38.277Z,101312.94
2023-02-01T00:25:05.711Z,101315.75
2023-02-01T00:27:32.514Z,101317.44
2023-02-01T00:29:59.331Z,101318.28
2023-02-01T00:32:26.312Z,101320.66
2023-02-01T00:34:53.161Z,101321.91
2023-02-01T00:37:19.955Z,101310.91
2023-02-01T00:39:46.969Z,101315.19
2023-02-01T00:42:13.801Z,101308.94
2023-02-01T00:44:40.617Z,101311.41
2023-02-01T00:47:07.455Z,101313.63
2023-02-01T00:49:34.282Z,101321.66
2023-02-01T00:52:01.080Z,101311.03
2023-02-01T00:54:28.322Z,101315.56
2023-02-01T00:56:55.143Z,101303.00
2023-02-01T00:59:21.918Z,101301.03
2023-02-01T01:01:48.862Z,101298.97
2023-02-01T01:04:15.745Z,101309.50
2023-02-01T01:06:42.618Z,101306.69
2023-02-01T01:09:10.918Z,101313.16
2023-02-01T01:11:39.590Z,101307.78
2023-02-01T01:14:08.873Z,101296.31
2023-02-01T01:16:36.028Z,101300.59
2023-02-01T01:19:03.618Z,101319.72
2023-02-01T01:21:31.211Z,101325.19
2023-02-01T01:23:58.626Z,101319.47
2023-02-01T01:26:28.563Z,101311.53
2023-02-01T01:29:00.344Z,101310.28
2023-02-01T01:31:28.553Z,101312.34
2023-02-01T01:33:58.431Z,101310.13
2023-02-01T01:36:28.000Z,101312.19
2023-02-01T01:38:55.007Z,101308.25
2023-02-01T01:41:30.480Z,101308.50
2023-02-01T01:44:46.122Z,101305.78
2023-02-01T01:47:13.735Z,101297.72
2023-02-01T01:49:40.970Z,101304.28
2023-02-01T01:52:08.768Z,101306.63
2023-02-01T01:54:40.917Z,101292.25
2023-02-01T01:57:20.175Z,101288.09
2023-02-01T01:59:55.837Z,101287.78
2023-02-01T02:02:22.733Z,101286.66
2023-02-01T02:04:49.788Z,101277.28
2023-02-01T02:07:23.721Z,101261.28
2023-02-01T02:10:00.010Z,101270.44
2023-02-01T02:12:27.551Z,101276.66
2023-02-01T02:14:54.818Z,101268.88
2023-02-01T02:17:44.823Z,101269.81
2023-02-01T02:21:04.996Z,101267.84
2023-02-01T02:23:35.427Z,101278.47
2023-02-01T02:26:14.975Z,101282.00
2023-02-01T02:29:12.745Z,101276.78
2023-02-01T02:32:37.024Z,101282.72
2023-02-01T02:35:15.533Z,101280.81
2023-02-01T02:37:58.053Z,101281.31
2023-02-01T02:40:33.753Z,101291.06
2023-02-01T02:43:36.179Z,101278.91
2023-02-01T02:46:26.411Z,101274.91
2023-02-01T02:48:58.768Z,101264.00
2023-02-01T02:51:54.297Z,101254.00
2023-02-01T02:54:48.417Z,101266.47
2023-02-01T02:57:42.002Z,101275.16
2023-02-01T03:00:36.250Z,101276.09
2023-02-01T03:03:22.057Z,101272.06
2023-02-01T03:05:51.634Z,101274.41
2023-02-01T03:08:27.755Z,101274.63
2023-02-01T03:11:09.479Z,101274.00
2023-02-01T03:13:55.581Z,101276.06
2023-02-01T03:16:38.661Z,101269.13
2023-02-01T03:19:17.574Z,101272.19
2023-02-01T03:22:05.625Z,101272.50
2023-02-01T03:24:57.136Z,101276.03
2023-02-01T03:27:36.137Z,101268.88
2023-02-01T03:30:27.017Z,101274.56
2023-02-01T03:33:02.847Z,101280.56
2023-02-01T03:35:58.112Z,101278.41
2023-02-01T03:38:34.397Z,101266.19
2023-02-01T03:41:10.487Z,101266.41
2023-02-01T03:43:52.299Z,101268.97
2023-02-01T03:46:29.625Z,101259.34
2023-02-01T03:48:56.946Z,101262.25
2023-02-01T03:51:24.801Z,101253.56
2023-02-01T03:53:54.924Z,101250.50
2023-02-01T03:56:26.187Z,101248.78
2023-02-01T03:59:01.946Z,101251.06
2023-02-01T04:01:32.497Z,101256.44
2023-02-01T04:03:59.489Z,101250.47
2023-02-01T04:06:26.637Z,101249.13
2023-02-01T04:08:53.716Z,101250.28
2023-02-01T04:11:20.577Z,101248.91
2023-02-01T04:13:47.341Z,101244.75
2023-02-01T04:16:14.148Z,101242.31
2023-02-01T04:18:41.132Z,101241.81
2023-02-01T04:21:08.004Z,101254.69
2023-02-01T04:23:35.192Z,101253.22
2023-02-01T04:26:04.330Z,101255.03
2023-02-01T04:28:32.186Z,101260.50
2023-02-01T04:30:59.068Z,101267.72
2023-02-01T04:33:25.903Z,101270.72
2023-02-01T04:35:52.804Z,101272.09
2023-02-01T04:38:19.757Z,101272.72
2023-02-01T04:40:49.335Z,101264.69
2023-02-01T04:43:18.265Z,101265.78
2023-02-01T04:45:51.949Z,101263.31
2023-02-01T04:48:20.177Z,101260.41
2023-02-01T04:50:49.607Z,101260.31
2023-02-01T04:53:16.886Z,101247.84
2023-02-01T04:55:51.197Z,101249.56
2023-02-01T04:58:17.987Z,101257.38
2023-02-01T05:00:44.763Z,101243.84
2023-02-01T05:03:11.527Z,101229.59
2023-02-01T05:05:38.304Z,101233.03
2023-02-01T05:08:05.079Z,101230.84
2023-02-01T05:10:31.840Z,101230.09
2023-02-01T05:13:17.144Z,101227.19
2023-02-01T05:15:44.064Z,101230.50
2023-02-01T05:18:10.858Z,101226.72
2023-02-01T05:20:37.821Z,101232.56
2023-02-01T05:23:04.956Z,101234.03
2023-02-01T05:25:31.870Z,101236.81
2023-02-01T05:27:58.647Z,101241.34
2023-02-01T05:30:25.664Z,101233.09
2023-02-01T05:32:54.517Z,101231.50
2023-02-01T05:35:21.431Z,101230.66
2023-02-01T05:37:48.271Z,101240.06
2023-02-01T05:40:15.335Z,101222.88
2023-02-01T05:42:42.111Z,101219.97
2023-02-01T05:45:09.653Z,101209.88
2023-02-01T05:47:36.437Z,101206.22
2023-02-01T05:50:05.243Z,101203.41
2023-02-01T05:52:32.496Z,101211.97
2023-02-01T05:54:59.570Z,101208.31
2023-02-01T05:57:26.513Z,101214.44
2023-02-01T05:59:53.332Z,101217.09
2023-02-01T06:02:20.170Z,101226.00
2023-02-01T06:04:46.980Z,101222.22
2023-02-01T06:07:14.075Z,101230.28
2023-02-01T06:09:40.847Z,101230.16
2023-02-01T06:12:08.030Z,101233.84
2023-02-01T06:14:35.276Z,101243.47
2023-02-01T06:17:02.162Z,101237.09
2023-02-01T06:19:29.511Z,101238.94
2023-02-01T06:21:56.329Z,101232.00
2023-02-01T06:24:23.142Z,101236.38
2023-02-01T06:26:49.924Z,101227.38
2023-02-01T06:29:16.775Z,101236.53
2023-02-01T06:31:44.157Z,101240.16
2023-02-01T06:34:10.981Z,101238.69
2023-02-01T06:36:37.758Z,101251.25
2023-02-01T06:39:05.154Z,101251.38
2023-02-01T06:41:31.999Z,101252.94
2023-02-01T06:43:59.042Z,101267.09
2023-02-01T06:46:25.984Z,101255.31
2023-02-01T06:48:52.846Z,101264.72
2023-02-01T06:51:29.475Z,101258.88
2023-02-01T06:53:56.915Z,101240.81
2023-02-01T06:56:24.226Z,101239.81
2023-02-01T06:58:51.643Z,101231.53
2023-02-01T07:01:19.288Z,101233.28
2023-02-01T07:03:52.352Z,101240.00
2023-02-01T07:06:19.887Z,101242.41
2023-02-01T07:08:46.650Z,101240.47
2023-02-01T07:11:15.863Z,101236.72
2023-02-01T07:13:42.814Z,101236.72
2023-02-01T07:16:16.907Z,101232.31
2023-02-01T07:18:44.419Z,101222.28
2023-02-01T07:21:11.586Z,101220.47
2023-02-01T07:23:38.976Z,101217.66
2023-02-01T07:26:08.701Z,101223.03
2023-02-01T07:28:37.188Z,101223.75
2023-02-01T07:31:10.931Z,101221.06
2023-02-01T07:33:38.167Z,101226.72
2023-02-01T07:36:07.994Z,101221.34
2023-02-01T07:38:35.169Z,101219.59
2023-02-01T07:41:04.902Z,101216.81
2023-02-01T07:43:33.243Z,101216.06
2023-02-01T07:46:00.775Z,101207.66
2023-02-01T07:48:28.310Z,101199.59
2023-02-01T07:51:12.869Z,101198.63
2023-02-01T07:53:40.321Z,101203.88
2023-02-01T07:56:17.392Z,101212.56
2023-02-01T07:58:44.679Z,101219.00
2023-02-01T08:01:25.597Z,101214.13
2023-02-01T08:03:56.027Z,101220.13
2023-02-01T08:06:24.970Z,101216.84
2023-02-01T08:08:53.218Z,101222.56
2023-02-01T08:11:22.717Z,101208.66
2023-02-01T08:13:49.874Z,101214.25
2023-02-01T08:16:18.849Z,101209.38
2023-02-01T08:18:46.151Z,101210.84
2023-02-01T08:21:16.755Z,101202.28
2023-02-01T08:23:44.446Z,101197.28
2023-02-01T08:26:26.795Z,101198.13
2023-02-01T08:29:05.990Z,101189.41
2023-02-01T08:31:32.885Z,101190.66
2023-02-01T08:34:04.768Z,101192.34
2023-02-01T08:36:32.492Z,101189.94
2023-02-01T08:38:59.527Z,101187.38
2023-02-01T08:41:30.249Z,101188.22
2023-02-01T08:43:58.255Z,101187.13
2023-02-01T08:46:25.965Z,101193.59
2023-02-01T08:48:53.619Z,101190.53
2023-02-01T08:51:23.011Z,101185.03
2023-02-01T08:53:50.469Z,101184.88
2023-02-01T08:56:19.744Z,101182.94
2023-02-01T08:58:46.716Z,101178.16
2023-02-01T09:01:18.395Z,101170.09
2023-02-01T09:03:46.698Z,101174.84
2023-02-01T09:06:15.966Z,101179.72
2023-02-01T09:08:43.335Z,101175.78
2023-02-01T09:11:22.992Z,101176.00
2023-02-01T09:13:50.118Z,101179.41
2023-02-01T09:16:17.065Z,101178.78
2023-02-01T09:18:55.477Z,101183.25
2023-02-01T09:21:29.056Z,101179.06
2023-02-01T09:23:56.095Z,101181.28
2023-02-01T09:26:31.519Z,101187.00
2023-02-01T09:29:00.212Z,101186.47
2023-02-01T09:31:27.233Z,101186.06
2023-02-01T09:33:54.206Z,101183.72
2023-02-01T09:36:21.110Z,101183.31
2023-02-01T09:38:52.806Z,101189.75
2023-02-01T09:41:28.025Z,101197.69
2023-02-01T09:44:15.348Z,101188.84
2023-02-01T09:46:42.348Z,101197.50
2023-02-01T09:49:21.125Z,101195.25
2023-02-01T09:51:51.436Z,101194.56
2023-02-01T09:54:26.685Z,101187.41
2023-02-01T09:57:02.863Z,101201.88
2023-02-01T09:59:45.854Z,101194.84
2023-02-01T10:02:18.973Z,101203.09
2023-02-01T10:04:46.545Z,101204.00
2023-02-01T10:08:11.221Z,101202.47
2023-02-01T10:10:48.185Z,101204.06
2023-02-01T10:13:23.886Z,101208.31
2023-02-01T10:16:14.237Z,101211.31
2023-02-01T10:19:02.549Z,101217.44
2023-02-01T10:21:40.765Z,101215.44
2023-02-01T10:24:38.714Z,101214.88
2023-02-01T10:27:24.401Z,101216.59
2023-02-01T10:30:05.714Z,101230.53
2023-02-01T10:32:36.020Z,101227.97
2023-02-01T10:35:16.257Z,101233.38
2023-02-01T10:37:44.692Z,101234.22
2023-02-01T10:40:18.100Z,101238.44
2023-02-01T10:42:45.683Z,101249.66
2023-02-01T10:45:20.899Z,101251.94
2023-02-01T10:47:51.034Z,101256.34
2023-02-01T10:50:35.929Z,101261.75
2023-02-01T10:53:13.652Z,101266.72
2023-02-01T10:55:46.847Z,101254.09
2023-02-01T10:58:27.940Z,101261.91
2023-02-01T11:01:07.911Z,101264.91
2023-02-01T11:03:42.264Z,101264.47
2023-02-01T11:06:27.578Z,101254.56
2023-02-01T11:09:01.150Z,101263.66
2023-02-01T11:11:30.274Z,101249.00
2023-02-01T11:14:17.399Z,101251.72
2023-02-01T11:16:54.753Z,101255.28
2023-02-01T11:19:22.431Z,101258.69
2023-02-01T11:21:54.914Z,101254.13
2023-02-01T11:24:34.427Z,101258.56
2023-02-01T11:27:06.800Z,101262.25
2023-02-01T11:29:41.705Z,101256.84
2023-02-01T11:32:10.183Z,101264.09
2023-02-01T11:34:45.529Z,101254.00
2023-02-01T11:37:32.258Z,101273.91
2023-02-01T11:40:02.758Z,101271.22
2023-02-01T11:42:30.458Z,101272.22
2023-02-01T11:45:26.804Z,101280.72
2023-02-01T11:47:55.968Z,101270.81
2023-02-01T11:51:07.059Z,101277.91
2023-02-01T11:54:08.751Z,101268.81
2023-02-01T11:57:16.329Z,101280.63
2023-02-01T12:00:14.684Z,101280.91
2023-02-01T12:03:03.386Z,101282.31
2023-02-01T12:05:51.977Z,101275.53
2023-02-01T12:08:46.842Z,101271.94
2023-02-01T12:11:26.104Z,101280.19
2023-02-01T12:14:13.710Z,101269.78
2023-02-01T12:17:01.642Z,101264.22
2023-02-01T12:19:46.928Z,101276.00
2023-02-01T12:22:35.090Z,101264.31
2023-02-01T12:25:58.357Z,101262.53
2023-02-01T12:29:13.156Z,101258.25
2023-02-01T12:32:14.739Z,101258.34
2023-02-01T12:35:12.399Z,101258.81
2023-02-01T12:38:01.599Z,101252.66
2023-02-01T12:40:52.716Z,101237.69
2023-02-01T12:43:44.837Z,101241.13
2023-02-01T12:46:18.826Z,101245.59
2023-02-01T12:49:05.605Z,101241.63
2023-02-01T12:51:43.190Z,101239.00
2023-02-01T12:54:50.275Z,101239.53
2023-02-01T12:57:29.536Z,101238.63
2023-02-01T13:00:32.810Z,101230.38
2023-02-01T13:03:32.378Z,101225.25
2023-02-01T13:06:19.020Z,101234.91
2023-02-01T13:08:59.692Z,101229.50
2023-02-01T13:11:32.865Z,101221.47
2023-02-01T13:14:43.444Z,101217.69
2023-02-01T13:17:25.803Z,101217.59
2023-02-01T13:20:25.545Z,101217.09
2023-02-01T13:23:18.802Z,101219.59
2023-02-01T13:25:51.672Z,101218.91
2023-02-01T13:28:28.711Z,101209.31
2023-02-01T13:31:09.863Z,101208.34
2023-02-01T13:33:56.993Z,101217.53
2023-02-01T13:36:39.611Z,101224.34
2023-02-01T13:39:37.751Z,101220.78
2023-02-01T13:42:28.382Z,101225.34
2023-02-01T13:45:05.331Z,101227.50
2023-02-01T13:47:45.160Z,101232.38
2023-02-01T13:50:23.535Z,101236.72
2023-02-01T13:53:01.756Z,101243.44
2023-02-01T13:55:36.272Z,101229.53
2023-02-01T13:58:14.918Z,101246.00
2023-02-01T14:00:46.618Z,101239.25
2023-02-01T14:03:23.933Z,101253.66
2023-02-01T14:05:50.903Z,101247.31
2023-02-01T14:08:42.196Z,101249.06
2023-02-01T14:11:50.981Z,101246.06
2023-02-01T14:14:17.776Z,101245.19
2023-02-01T14:17:11.101Z,101243.19
2023-02-01T14:19:38.465Z,101245.50
2023-02-01T14:22:27.249Z,101242.09
2023-02-01T14:24:59.366Z,101257.72
2023-02-01T14:27:36.372Z,101237.19
2023-02-01T14:30:09.450Z,101253.72
2023-02-01T14:32:39.513Z,101250.00
2023-02-01T14:35:30.416Z,101244.13
2023-02-01T14:38:04.049Z,101237.72
2023-02-01T14:40:32.107Z,101246.75
2023-02-01T14:42:58.940Z,101251.16
2023-02-01T14:45:29.199Z,101241.78
2023-02-01T14:48:11.190Z,101261.13
2023-02-01T14:50:48.297Z,101254.63
2023-02-01T14:53:26.054Z,101258.03
2023-02-01T14:56:15.183Z,101277.03
2023-02-01T14:58:59.682Z,101267.94
2023-02-01T15:01:36.359Z,101269.75
2023-02-01T15:04:16.206Z,101278.00
2023-02-01T15:06:56.019Z,101281.53
2023-02-01T15:09:30.358Z,101281.84
2023-02-01T15:12:25.281Z,101301.53
2023-02-01T15:15:24.243Z,101295.41
2023-02-01T15:18:01.178Z,101305.13
2023-02-01T15:20:33.991Z,101313.09
2023-02-01T15:23:06.320Z,101312.53
2023-02-01T15:25:42.316Z,101321.41
2023-02-01T15:28:15.876Z,101311.47
2023-02-01T15:30:58.700Z,101320.72
2023-02-01T15:33:27.855Z,101328.81
2023-02-01T15:36:19.668Z,101328.84
2023-02-01T15:38:46.742Z,101325.41
2023-02-01T15:41:15.683Z,101325.72
2023-02-01T15:43:56.254Z,101320.91
2023-02-01T15:46:37.220Z,101327.59
2023-02-01T15:49:05.308Z,101327.72
2023-02-01T15:51:36.727Z,101330.44
2023-02-01T15:54:11.229Z,101323.63
2023-02-01T15:56:44.955Z,101328.03
2023-02-01T15:59:20.780Z,101323.75
2023-02-01T16:01:48.088Z,101320.22
2023-02-01T16:04:34.032Z,101331.72
2023-02-01T16:07:05.713Z,101323.91
2023-02-01T16:09:57.157Z,101333.19
2023-02-01T16:12:44.123Z,101330.47
2023-02-01T16:15:10.885Z,101327.19
2023-02-01T16:17:37.841Z,101329.47
2023-02-01T16:20:05.346Z,101324.63
2023-02-01T16:22:32.369Z,101331.19
2023-02-01T16:24:59.149Z,101334.88
2023-02-01T16:27:25.966Z,101336.03
2023-02-01T16:29:52.787Z,101327.66
2023-02-01T16:32:23.360Z,101335.47
2023-02-01T16:34:50.371Z,101341.19
2023-02-01T16:37:24.609Z,101336.50
2023-02-01T16:39:52.678Z,101345.88
2023-02-01T16:42:19.663Z,101350.56
2023-02-01T16:44:46.580Z,101353.44
2023-02-01T16:47:19.499Z,101361.38
2023-02-01T16:49:47.942Z,101358.84
2023-02-01T16:52:22.959Z,101358.69
2023-02-01T16:54:50.191Z,101358.69
2023-02-01T16:57:20.880Z,101357.84
2023-02-01T16:59:47.709Z,101359.69
2023-02-01T17:02:18.459Z,101364.94
2023-02-01T17:04:45.436Z,101368.22
2023-02-01T17:07:19.963Z,101361.84
2023-02-01T17:09:48.504Z,101373.75
2023-02-01T17:12:29.616Z,101383.59
2023-02-01T17:14:58.516Z,101383.84
2023-02-01T17:17:39.567Z,101384.03
2023-02-01T17:20:07.841Z,101389.25
2023-02-01T17:22:34.763Z,101401.81
2023-02-01T17:25:01.623Z,101399.50
2023-02-01T17:27:30.464Z,101398.53
2023-02-01T17:29:57.328Z,101407.78
2023-02-01T17:32:26.622Z,101406.75
2023-02-01T17:34:53.829Z,101404.91
2023-02-01T17:37:31.892Z,101403.22
2023-02-01T17:39:59.578Z,101399.22
2023-02-01T17:42:29.907Z,101397.53
2023-02-01T17:45:02.715Z,101400.94
2023-02-01T17:47:29.553Z,101393.25
2023-02-01T17:49:57.098Z,101398.53
2023-02-01T17:52:26.378Z,101395.38
2023-02-01T17:54:54.406Z,101396.66
2023-02-01T17:57:21.441Z,101394.41
2023-02-01T17:59:48.495Z,101398.09
2023-02-01T18:02:25.545Z,101404.91
2023-02-01T18:04:52.803Z,101406.91
2023-02-01T18:07:19.664Z,101404.19
2023-02-01T18:09:46.688Z,101402.63
2023-02-01T18:12:23.374Z,101404.78
2023-02-01T18:14:50.407Z,101405.78
2023-02-01T18:17:17.226Z,101408.03
2023-02-01T18:19:43.995Z,101407.75
2023-02-01T18:22:18.115Z,101400.91
2023-02-01T18:24:45.041Z,101400.66
2023-02-01T18:27:11.781Z,101396.63
2023-02-01T18:29:38.704Z,101408.28
2023-02-01T18:32:05.712Z,101403.47
2023-02-01T18:34:32.473Z,101396.03
2023-02-01T18:36:59.366Z,101393.06
2023-02-01T18:39:26.119Z,101394.66
2023-02-01T18:41:53.276Z,101399.47
2023-02-01T18:44:20.496Z,101396.03
2023-02-01T18:46:47.296Z,101396.91
2023-02-01T18:49:18.121Z,101384.53
2023-02-01T18:51:45.632Z,101389.50
2023-02-01T18:54:12.587Z,101377.25
2023-02-01T18:56:40.061Z,101386.91
2023-02-01T18:59:07.046Z,101393.47
2023-02-01T19:01:33.840Z,101394.63
2023-02-01T19:04:08.510Z,101399.56
2023-02-01T19:06:38.638Z,101390.75
2023-02-01T19:09:05.388Z,101388.31
2023-02-01T19:11:32.152Z,101394.44
2023-02-01T19:13:58.932Z,101399.13
2023-02-01T19:16:25.711Z,101399.00
2023-02-01T19:18:53.647Z,101405.53
2023-02-01T19:21:20.544Z,101399.13
2023-02-01T19:23:47.542Z,101400.41
2023-02-01T19:26:16.635Z,101397.81
2023-02-01T19:28:48.143Z,101389.47
2023-02-01T19:31:16.354Z,101396.03
2023-02-01T19:33:43.272Z,101393.13
2023-02-01T19:36:11.097Z,101393.72
2023-02-01T19:38:38.935Z,101402.53
2023-02-01T19:41:06.258Z,101397.72
2023-02-01T19:43:33.601Z,101396.88
2023-02-01T19:46:03.102Z,101394.03
2023-02-01T19:48:31.580Z,101399.44
2023-02-01T19:50:59.297Z,101393.72
2023-02-01T19:53:28.097Z,101404.25
2023-02-01T19:55:57.168Z,101403.25
2023-02-01T19:58:26.151Z,101408.97
2023-02-01T20:00:57.301Z,101410.94
2023-02-01T20:03:24.641Z,101406.25
2023-02-01T20:05:57.491Z,101411.66
2023-02-01T20:08:25.299Z,101415.63
2023-02-01T20:10:52.506Z,101425.44
2023-02-01T20:13:19.767Z,101419.91
2023-02-01T20:15:46.766Z,101416.81
2023-02-01T20:18:13.719Z,101428.44
2023-02-01T20:20:41.833Z,101422.47
2023-02-01T20:23:09.229Z,101427.88
2023-02-01T20:25:37.962Z,101433.13
2023-02-01T20:28:05.078Z,101438.41
2023-02-01T20:30:32.551Z,101441.81
2023-02-01T20:32:59.503Z,101447.63
2023-02-01T20:35:26.844Z,101441.09
2023-02-01T20:37:58.441Z,101440.09
2023-02-01T20:40:26.072Z,101442.94
2023-02-01T20:42:53.301Z,101436.94
2023-02-01T20:45:21.209Z,101447.03
2023-02-01T20:47:53.080Z,101450.44
2023-02-01T20:50:21.227Z,101451.19
2023-02-01T20:52:49.289Z,101453.16
2023-02-01T20:55:17.668Z,101453.16
2023-02-01T20:57:45.761Z,101448.63
2023-02-01T21:00:14.039Z,101447.50
2023-02-01T21:02:40.814Z,101437.25
2023-02-01T21:05:08.927Z,101444.63
2023-02-01T21:07:37.923Z,101448.03
2023-02-01T21:10:06.562Z,101453.13
2023-02-01T21:12:33.459Z,101446.03
2023-02-01T21:15:00.515Z,101446.63
2023-02-01T21:17:30.573Z,101455.56
2023-02-01T21:19:57.991Z,101449.00
2023-02-01T21:22:25.256Z,101452.28
2023-02-01T21:24:52.047Z,101450.28
2023-02-01T21:27:19.035Z,101447.72
2023-02-01T21:29:45.797Z,101447.59
2023-02-01T21:32:13.511Z,101450.28
2023-02-01T21:34:40.327Z,101444.91
2023-02-01T21:37:07.095Z,101441.75
2023-02-01T21:39:34.178Z,101443.47
2023-02-01T21:42:17.725Z,101438.78
2023-02-01T21:44:49.105Z,101443.72
2023-02-01T21:47:19.589Z,101438.66
2023-02-01T21:49:49.076Z,101423.84
2023-02-01T21:52:17.756Z,101429.84
2023-02-01T21:54:45.156Z,101426.25
2023-02-01T21:57:12.687Z,101427.25
2023-02-01T21:59:42.510Z,101426.13
2023-02-01T22:02:16.655Z,101427.53
2023-02-01T22:04:44.147Z,101418.16
2023-02-01T22:07:11.706Z,101416.72
2023-02-01T22:09:38.728Z,101420.31
2023-02-01T22:12:05.928Z,101423.72
2023-02-01T22:14:33.584Z,101431.38
2023-02-01T22:17:01.067Z,101442.75
2023-02-01T22:19:27.795Z,101440.06
2023-02-01T22:21:54.757Z,101434.66
2023-02-01T22:24:22.291Z,101441.47
2023-02-01T22:26:49.806Z,101440.75
2023-02-01T22:29:19.419Z,101452.53
2023-02-01T22:31:46.414Z,101442.88
2023-02-01T22:34:13.930Z,101436.63
2023-02-01T22:36:41.453Z,101454.66
2023-02-01T22:39:08.410Z,101458.38
2023-02-01T22:41:35.304Z,101455.41
2023-02-01T22:44:02.157Z,101457.66
2023-02-01T22:46:31.699Z,101469.28
2023-02-01T22:48:59.461Z,101472.47
2023-02-01T22:51:30.478Z,101466.84
2023-02-01T22:53:58.295Z,101476.72
2023-02-01T22:56:32.079Z,101467.78
2023-02-01T22:59:03.632Z,101472.47
2023-02-01T23:01:30.946Z,101471.44
2023-02-01T23:04:04.227Z,101461.66
2023-02-01T23:06:33.093Z,101471.16
2023-02-01T23:09:04.080Z,101464.75
2023-02-01T23:11:31.577Z,101461.78
2023-02-01T23:13:58.428Z,101466.03
2023-02-01T23:16:25.552Z,101466.00
2023-02-01T23:18:52.369Z,101458.09
2023-02-01T23:21:23.044Z,101462.75
2023-02-01T23:23:53.863Z,101468.16
2023-02-01T23:26:22.390Z,101470.88
2023-02-01T23:28:54.265Z,101467.06
2023-02-01T23:31:24.322Z,101463.34
2023-02-01T23:33:55.040Z,101476.56
2023-02-01T23:36:24.316Z,101478.97
2023-02-01T23:38:51.761Z,101480.09
2023-02-01T23:41:21.026Z,101474.44
2023-02-01T23:44:00.048Z,101474.56
2023-02-01T23:46:33.172Z,101481.53
2023-02-01T23:49:01.493Z,101478.41
2023-02-01T23:51:29.563Z,101478.25
2023-02-01T23:53:56.616Z,101470.72
2023-02-01T23:56:27.979Z,101472.41
2023-02-01T23:58:57.075Z,101473.84
